sensor_id;sensor_type;location;lat;lon;timestamp;P1;P2;P0
70255;PMS5003;57669;52.624;-1.688;2022-07-22T00:00:17;1;1;
70255;PMS5003;57669;52.624;-1.688;2022-07-22T00:02:43;3;3;
70255;PMS5003;57669;52.624;-1.688;2022-07-22T00:05:08;4;3;
70255;PMS5003;57669;52.624;-1.688;2022-07-22T00:07:34;1;1;
70255;PMS5003;57669;52.624;-1.688;2022-07-22T00:10:00;3;3;
70255;PMS5003;57669;52.624;-1.688;2022-07-22T00:12:25;2;2;
70255;PMS5003;57669;52.624;-1.688;2022-07-22T00:14:51;2;2;
70255;PMS5003;57669;52.624;-1.688;2022-07-22T00:17:17;3;3;
70255;PMS5003;57669;52.624;-1.688;2022-07-22T00:19:42;2;2;
70255;PMS5003;57669;52.624;-1.688;2022-07-22T00:22:08;2;2;
70255;PMS5003;57669;52.624;-1.688;2022-07-22T00:24:34;2;2;
70255;PMS5003;57669;52.624;-1.688;2022-07-22T00:26:59;3;2;
70255;PMS5003;57669;52.624;-1.688;2022-07-22T00:29:25;3;3;
70255;PMS5003;57669;52.624;-1.688;2022-07-22T00:31:51;2;2;
70255;PMS5003;57669;52.624;-1.688;2022-07-22T00:34:17;4;3;
70255;PMS5003;57669;52.624;-1.688;2022-07-22T00:36:42;4;4;
70255;PMS5003;57669;52.624;-1.688;2022-07-22T00:39:08;3;2;
70255;PMS5003;57669;52.624;-1.688;2022-07-22T00:41:34;2;2;
70255;PMS5003;57669;52.624;-1.688;2022-07-22T00:44:00;2;2;
70255;PMS5003;57669;52.624;-1.688;2022-07-22T00:46:25;2;2;
70255;PMS5003;57669;52.624;-1.688;2022-07-22T00:48:51;3;3;
70255;PMS5003;57669;52.624;-1.688;2022-07-22T00:51:16;3;3;
70255;PMS5003;57669;52.624;-1.688;2022-07-22T00:53:42;3;3;
70255;PMS5003;57669;52.624;-1.688;2022-07-22T00:56:09;3;2;
70255;PMS5003;57669;52.624;-1.688;2022-07-22T00:58:33;4;3;
70255;PMS5003;57669;52.624;-1.688;2022-07-22T01:00:59;5;4;
70255;PMS5003;57669;52.624;-1.688;2022-07-22T01:03:25;3;2;
70255;PMS5003;57669;52.624;-1.688;2022-07-22T01:05:50;4;4;
70255;PMS5003;57669;52.624;-1.688;2022-07-22T01:08:16;6;5;
70255;PMS5003;57669;52.624;-1.688;2022-07-22T01:10:42;3;3;
70255;PMS5003;57669;52.624;-1.688;2022-07-22T01:13:07;4;3;
70255;PMS5003;57669;52.624;-1.688;2022-07-22T01:15:33;2;2;
70255;PMS5003;57669;52.624;-1.688;2022-07-22T01:17:59;4;4;
70255;PMS5003;57669;52.624;-1.688;2022-07-22T01:20:24;3;3;
70255;PMS5003;57669;52.624;-1.688;2022-07-22T01:22:50;3;2;
70255;PMS5003;57669;52.624;-1.688;2022-07-22T01:25:16;4;3;
70255;PMS5003;57669;52.624;-1.688;2022-07-22T01:27:41;2;2;
70255;PMS5003;57669;52.624;-1.688;2022-07-22T01:30:08;2;2;
70255;PMS5003;57669;52.624;-1.688;2022-07-22T01:32:33;5;5;
70255;PMS5003;57669;52.624;-1.688;2022-07-22T01:34:58;2;2;
70255;PMS5003;57669;52.624;-1.688;2022-07-22T01:37:24;5;4;
70255;PMS5003;57669;52.624;-1.688;2022-07-22T01:39:50;3;3;
70255;PMS5003;57669;52.624;-1.688;2022-07-22T01:42:15;2;2;
70255;PMS5003;57669;52.624;-1.688;2022-07-22T01:44:41;3;2;
70255;PMS5003;57669;52.624;-1.688;2022-07-22T01:47:07;4;4;
70255;PMS5003;57669;52.624;-1.688;2022-07-22T01:49:32;1;1;
70255;PMS5003;57669;52.624;-1.688;2022-07-22T01:51:58;3;3;
70255;PMS5003;57669;52.624;-1.688;2022-07-22T01:54:24;3;2;
70255;PMS5003;57669;52.624;-1.688;2022-07-22T01:56:49;5;5;
70255;PMS5003;57669;52.624;-1.688;2022-07-22T01:59:15;3;3;
70255;PMS5003;57669;52.624;-1.688;2022-07-22T02:01:40;3;3;
70255;PMS5003;57669;52.624;-1.688;2022-07-22T02:06:32;3;3;
70255;PMS5003;57669;52.624;-1.688;2022-07-22T02:08:58;2;2;
70255;PMS5003;57669;52.624;-1.688;2022-07-22T02:11:23;4;3;
70255;PMS5003;57669;52.624;-1.688;2022-07-22T02:13:49;1;1;
70255;PMS5003;57669;52.624;-1.688;2022-07-22T02:16:14;4;3;
70255;PMS5003;57669;52.624;-1.688;2022-07-22T02:18:40;3;3;
70255;PMS5003;57669;52.624;-1.688;2022-07-22T02:21:06;4;4;
70255;PMS5003;57669;52.624;-1.688;2022-07-22T02:23:31;3;3;
70255;PMS5003;57669;52.624;-1.688;2022-07-22T02:25:57;3;3;
70255;PMS5003;57669;52.624;-1.688;2022-07-22T02:28:23;4;4;
70255;PMS5003;57669;52.624;-1.688;2022-07-22T02:30:49;4;4;
70255;PMS5003;57669;52.624;-1.688;2022-07-22T02:33:14;3;3;
70255;PMS5003;57669;52.624;-1.688;2022-07-22T02:35:40;3;2;
70255;PMS5003;57669;52.624;-1.688;2022-07-22T02:38:07;3;3;
70255;PMS5003;57669;52.624;-1.688;2022-07-22T02:40:31;3;2;
70255;PMS5003;57669;52.624;-1.688;2022-07-22T02:42:57;4;4;
70255;PMS5003;57669;52.624;-1.688;2022-07-22T02:45:23;6;5;
70255;PMS5003;57669;52.624;-1.688;2022-07-22T02:47:50;3;3;
70255;PMS5003;57669;52.624;-1.688;2022-07-22T02:50:14;2;2;
70255;PMS5003;57669;52.624;-1.688;2022-07-22T02:52:40;4;3;
70255;PMS5003;57669;52.624;-1.688;2022-07-22T02:55:06;4;4;
70255;PMS5003;57669;52.624;-1.688;2022-07-22T02:57:31;4;4;
70255;PMS5003;57669;52.624;-1.688;2022-07-22T02:59:57;5;5;
70255;PMS5003;57669;52.624;-1.688;2022-07-22T03:02:23;4;4;
70255;PMS5003;57669;52.624;-1.688;2022-07-22T03:04:48;3;3;
70255;PMS5003;57669;52.624;-1.688;2022-07-22T03:07:14;4;4;
70255;PMS5003;57669;52.624;-1.688;2022-07-22T03:09:41;3;3;
70255;PMS5003;57669;52.624;-1.688;2022-07-22T03:12:05;3;3;
70255;PMS5003;57669;52.624;-1.688;2022-07-22T03:14:31;4;4;
70255;PMS5003;57669;52.624;-1.688;2022-07-22T03:16:57;5;5;
70255;PMS5003;57669;52.624;-1.688;2022-07-22T03:19:22;5;4;
70255;PMS5003;57669;52.624;-1.688;2022-07-22T03:21:48;5;5;
70255;PMS5003;57669;52.624;-1.688;2022-07-22T03:24:14;4;4;
70255;PMS5003;57669;52.624;-1.688;2022-07-22T03:26:39;1;1;
70255;PMS5003;57669;52.624;-1.688;2022-07-22T03:29:05;2;2;
70255;PMS5003;57669;52.624;-1.688;2022-07-22T03:31:31;3;3;
70255;PMS5003;57669;52.624;-1.688;2022-07-22T03:33:57;5;5;
70255;PMS5003;57669;52.624;-1.688;2022-07-22T03:36:22;3;3;
70255;PMS5003;57669;52.624;-1.688;2022-07-22T03:38:48;3;3;
70255;PMS5003;57669;52.624;-1.688;2022-07-22T03:41:14;2;2;
70255;PMS5003;57669;52.624;-1.688;2022-07-22T03:43:40;3;3;
70255;PMS5003;57669;52.624;-1.688;2022-07-22T03:46:05;2;2;
70255;PMS5003;57669;52.624;-1.688;2022-07-22T03:48:31;4;4;
70255;PMS5003;57669;52.624;-1.688;2022-07-22T03:50:57;3;3;
70255;PMS5003;57669;52.624;-1.688;2022-07-22T03:53:23;3;3;
70255;PMS5003;57669;52.624;-1.688;2022-07-22T03:55:48;4;4;
70255;PMS5003;57669;52.624;-1.688;2022-07-22T03:58:15;4;4;
70255;PMS5003;57669;52.624;-1.688;2022-07-22T04:00:40;2;2;
70255;PMS5003;57669;52.624;-1.688;2022-07-22T04:03:05;2;2;
70255;PMS5003;57669;52.624;-1.688;2022-07-22T04:05:31;3;3;
70255;PMS5003;57669;52.624;-1.688;2022-07-22T04:07:57;3;3;
70255;PMS5003;57669;52.624;-1.688;2022-07-22T04:10:23;3;3;
70255;PMS5003;57669;52.624;-1.688;2022-07-22T04:12:48;4;4;
70255;PMS5003;57669;52.624;-1.688;2022-07-22T04:15:14;4;4;
70255;PMS5003;57669;52.624;-1.688;2022-07-22T04:17:40;3;3;
70255;PMS5003;57669;52.624;-1.688;2022-07-22T04:20:06;4;3;
70255;PMS5003;57669;52.624;-1.688;2022-07-22T04:22:31;3;3;
70255;PMS5003;57669;52.624;-1.688;2022-07-22T04:24:57;5;4;
70255;PMS5003;57669;52.624;-1.688;2022-07-22T04:27:22;6;4;
70255;PMS5003;57669;52.624;-1.688;2022-07-22T04:29:48;4;4;
70255;PMS5003;57669;52.624;-1.688;2022-07-22T04:32:14;5;5;
70255;PMS5003;57669;52.624;-1.688;2022-07-22T04:34:40;3;3;
70255;PMS5003;57669;52.624;-1.688;2022-07-22T04:37:05;3;3;
70255;PMS5003;57669;52.624;-1.688;2022-07-22T04:39:31;2;2;
70255;PMS5003;57669;52.624;-1.688;2022-07-22T04:41:57;3;3;
70255;PMS5003;57669;52.624;-1.688;2022-07-22T04:44:22;6;6;
70255;PMS5003;57669;52.624;-1.688;2022-07-22T04:46:48;5;5;
70255;PMS5003;57669;52.624;-1.688;2022-07-22T04:49:14;5;5;
70255;PMS5003;57669;52.624;-1.688;2022-07-22T04:51:39;4;4;
70255;PMS5003;57669;52.624;-1.688;2022-07-22T04:54:05;4;3;
70255;PMS5003;57669;52.624;-1.688;2022-07-22T04:56:31;4;4;
70255;PMS5003;57669;52.624;-1.688;2022-07-22T04:58:56;5;5;
70255;PMS5003;57669;52.624;-1.688;2022-07-22T05:01:22;3;3;
70255;PMS5003;57669;52.624;-1.688;2022-07-22T05:03:48;4;4;
70255;PMS5003;57669;52.624;-1.688;2022-07-22T05:06:13;2;2;
70255;PMS5003;57669;52.624;-1.688;2022-07-22T05:08:39;5;3;
70255;PMS5003;57669;52.624;-1.688;2022-07-22T05:11:06;3;3;
70255;PMS5003;57669;52.624;-1.688;2022-07-22T05:13:30;4;3;
70255;PMS5003;57669;52.624;-1.688;2022-07-22T05:15:56;5;4;
70255;PMS5003;57669;52.624;-1.688;2022-07-22T05:18:22;5;5;
70255;PMS5003;57669;52.624;-1.688;2022-07-22T05:20:47;4;4;
70255;PMS5003;57669;52.624;-1.688;2022-07-22T05:23:13;5;4;
70255;PMS5003;57669;52.624;-1.688;2022-07-22T05:25:38;4;4;
70255;PMS5003;57669;52.624;-1.688;2022-07-22T05:28:05;4;4;
70255;PMS5003;57669;52.624;-1.688;2022-07-22T05:30:30;5;5;
70255;PMS5003;57669;52.624;-1.688;2022-07-22T05:32:56;3;3;
70255;PMS5003;57669;52.624;-1.688;2022-07-22T05:35:21;6;6;
70255;PMS5003;57669;52.624;-1.688;2022-07-22T05:37:47;4;4;
70255;PMS5003;57669;52.624;-1.688;2022-07-22T05:40:13;5;5;
70255;PMS5003;57669;52.624;-1.688;2022-07-22T05:42:38;6;6;
70255;PMS5003;57669;52.624;-1.688;2022-07-22T05:45:05;3;3;
70255;PMS5003;57669;52.624;-1.688;2022-07-22T05:47:30;5;5;
70255;PMS5003;57669;52.624;-1.688;2022-07-22T05:49:56;6;6;
70255;PMS5003;57669;52.624;-1.688;2022-07-22T05:52:21;4;4;
70255;PMS5003;57669;52.624;-1.688;2022-07-22T05:54:47;4;4;
70255;PMS5003;57669;52.624;-1.688;2022-07-22T05:57:13;8;6;
70255;PMS5003;57669;52.624;-1.688;2022-07-22T05:59:38;4;4;
70255;PMS5003;57669;52.624;-1.688;2022-07-22T06:02:04;4;4;
70255;PMS5003;57669;52.624;-1.688;2022-07-22T06:04:30;4;4;
70255;PMS5003;57669;52.624;-1.688;2022-07-22T06:06:56;4;4;
70255;PMS5003;57669;52.624;-1.688;2022-07-22T06:09:21;6;4;
70255;PMS5003;57669;52.624;-1.688;2022-07-22T06:11:47;5;5;
70255;PMS5003;57669;52.624;-1.688;2022-07-22T06:14:13;3;3;
70255;PMS5003;57669;52.624;-1.688;2022-07-22T06:21:30;6;6;
70255;PMS5003;57669;52.624;-1.688;2022-07-22T06:23:55;5;5;
70255;PMS5003;57669;52.624;-1.688;2022-07-22T06:26:21;5;5;
70255;PMS5003;57669;52.624;-1.688;2022-07-22T06:28:47;5;5;
70255;PMS5003;57669;52.624;-1.688;2022-07-22T06:31:12;7;5;
70255;PMS5003;57669;52.624;-1.688;2022-07-22T06:33:38;5;5;
70255;PMS5003;57669;52.624;-1.688;2022-07-22T06:36:04;5;5;
70255;PMS5003;57669;52.624;-1.688;2022-07-22T06:38:30;4;3;
70255;PMS5003;57669;52.624;-1.688;2022-07-22T06:40:55;7;6;
70255;PMS5003;57669;52.624;-1.688;2022-07-22T06:43:21;5;4;
70255;PMS5003;57669;52.624;-1.688;2022-07-22T06:45:47;5;5;
70255;PMS5003;57669;52.624;-1.688;2022-07-22T06:48:12;6;6;
70255;PMS5003;57669;52.624;-1.688;2022-07-22T06:50:38;5;4;
70255;PMS5003;57669;52.624;-1.688;2022-07-22T06:53:04;4;4;
70255;PMS5003;57669;52.624;-1.688;2022-07-22T06:55:30;6;5;
70255;PMS5003;57669;52.624;-1.688;2022-07-22T06:57:55;5;4;
70255;PMS5003;57669;52.624;-1.688;2022-07-22T07:00:21;5;5;
70255;PMS5003;57669;52.624;-1.688;2022-07-22T07:02:47;5;4;
70255;PMS5003;57669;52.624;-1.688;2022-07-22T07:05:12;5;5;
70255;PMS5003;57669;52.624;-1.688;2022-07-22T07:07:38;4;4;
70255;PMS5003;57669;52.624;-1.688;2022-07-22T07:10:04;5;5;
70255;PMS5003;57669;52.624;-1.688;2022-07-22T07:12:29;5;5;
70255;PMS5003;57669;52.624;-1.688;2022-07-22T07:14:56;5;5;
70255;PMS5003;57669;52.624;-1.688;2022-07-22T07:17:21;6;5;
70255;PMS5003;57669;52.624;-1.688;2022-07-22T07:19:47;5;5;
70255;PMS5003;57669;52.624;-1.688;2022-07-22T07:22:12;5;4;
70255;PMS5003;57669;52.624;-1.688;2022-07-22T07:24:38;6;6;
70255;PMS5003;57669;52.624;-1.688;2022-07-22T07:27:04;3;2;
70255;PMS5003;57669;52.624;-1.688;2022-07-22T07:29:30;5;5;
70255;PMS5003;57669;52.624;-1.688;2022-07-22T07:31:55;7;5;
70255;PMS5003;57669;52.624;-1.688;2022-07-22T07:34:21;6;5;
70255;PMS5003;57669;52.624;-1.688;2022-07-22T07:36:47;6;6;
70255;PMS5003;57669;52.624;-1.688;2022-07-22T07:39:12;7;7;
70255;PMS5003;57669;52.624;-1.688;2022-07-22T07:41:38;5;5;
70255;PMS5003;57669;52.624;-1.688;2022-07-22T07:44:03;6;6;
70255;PMS5003;57669;52.624;-1.688;2022-07-22T07:46:29;4;4;
70255;PMS5003;57669;52.624;-1.688;2022-07-22T07:48:55;4;4;
70255;PMS5003;57669;52.624;-1.688;2022-07-22T07:51:21;5;4;
70255;PMS5003;57669;52.624;-1.688;2022-07-22T07:53:46;2;2;
70255;PMS5003;57669;52.624;-1.688;2022-07-22T07:56:12;4;4;
70255;PMS5003;57669;52.624;-1.688;2022-07-22T07:58:37;8;7;
70255;PMS5003;57669;52.624;-1.688;2022-07-22T08:01:03;5;5;
70255;PMS5003;57669;52.624;-1.688;2022-07-22T08:03:28;4;4;
70255;PMS5003;57669;52.624;-1.688;2022-07-22T08:05:54;4;4;
70255;PMS5003;57669;52.624;-1.688;2022-07-22T08:08:20;6;5;
70255;PMS5003;57669;52.624;-1.688;2022-07-22T08:10:46;6;5;
70255;PMS5003;57669;52.624;-1.688;2022-07-22T08:13:11;4;4;
70255;PMS5003;57669;52.624;-1.688;2022-07-22T08:15:37;5;5;
70255;PMS5003;57669;52.624;-1.688;2022-07-22T08:18:03;6;6;
70255;PMS5003;57669;52.624;-1.688;2022-07-22T08:20:29;5;5;
70255;PMS5003;57669;52.624;-1.688;2022-07-22T08:22:55;6;6;
70255;PMS5003;57669;52.624;-1.688;2022-07-22T08:25:20;6;5;
70255;PMS5003;57669;52.624;-1.688;2022-07-22T08:27:46;8;6;
70255;PMS5003;57669;52.624;-1.688;2022-07-22T08:30:12;7;6;
70255;PMS5003;57669;52.624;-1.688;2022-07-22T08:32:37;8;8;
70255;PMS5003;57669;52.624;-1.688;2022-07-22T08:35:03;11;11;
70255;PMS5003;57669;52.624;-1.688;2022-07-22T08:37:28;10;10;
70255;PMS5003;57669;52.624;-1.688;2022-07-22T08:39:54;8;8;
70255;PMS5003;57669;52.624;-1.688;2022-07-22T08:42:20;12;12;
70255;PMS5003;57669;52.624;-1.688;2022-07-22T08:44:46;7;6;
70255;PMS5003;57669;52.624;-1.688;2022-07-22T08:47:11;8;8;
70255;PMS5003;57669;52.624;-1.688;2022-07-22T08:49:38;7;7;
70255;PMS5003;57669;52.624;-1.688;2022-07-22T08:52:03;6;6;
70255;PMS5003;57669;52.624;-1.688;2022-07-22T08:54:29;5;5;
70255;PMS5003;57669;52.624;-1.688;2022-07-22T08:56:54;5;4;
70255;PMS5003;57669;52.624;-1.688;2022-07-22T08:59:20;6;6;
70255;PMS5003;57669;52.624;-1.688;2022-07-22T09:04:11;6;5;
70255;PMS5003;57669;52.624;-1.688;2022-07-22T09:06:37;5;5;
70255;PMS5003;57669;52.624;-1.688;2022-07-22T09:09:04;5;5;
70255;PMS5003;57669;52.624;-1.688;2022-07-22T09:11:29;6;5;
70255;PMS5003;57669;52.624;-1.688;2022-07-22T09:13:54;5;5;
70255;PMS5003;57669;52.624;-1.688;2022-07-22T09:18:46;3;3;
70255;PMS5003;57669;52.624;-1.688;2022-07-22T09:21:11;5;5;
70255;PMS5003;57669;52.624;-1.688;2022-07-22T09:23:39;4;4;
70255;PMS5003;57669;52.624;-1.688;2022-07-22T09:26:02;5;4;
70255;PMS5003;57669;52.624;-1.688;2022-07-22T09:28:28;5;5;
70255;PMS5003;57669;52.624;-1.688;2022-07-22T09:30:54;6;6;
70255;PMS5003;57669;52.624;-1.688;2022-07-22T09:33:20;4;4;
70255;PMS5003;57669;52.624;-1.688;2022-07-22T09:35:45;5;5;
70255;PMS5003;57669;52.624;-1.688;2022-07-22T09:38:11;5;4;
70255;PMS5003;57669;52.624;-1.688;2022-07-22T09:40:37;5;5;
70255;PMS5003;57669;52.624;-1.688;2022-07-22T09:43:03;9;6;
70255;PMS5003;57669;52.624;-1.688;2022-07-22T09:45:28;6;5;
70255;PMS5003;57669;52.624;-1.688;2022-07-22T09:47:53;6;6;
70255;PMS5003;57669;52.624;-1.688;2022-07-22T09:50:20;4;4;
70255;PMS5003;57669;52.624;-1.688;2022-07-22T09:52:45;3;3;
70255;PMS5003;57669;52.624;-1.688;2022-07-22T09:55:11;3;3;
70255;PMS5003;57669;52.624;-1.688;2022-07-22T09:57:36;5;4;
70255;PMS5003;57669;52.624;-1.688;2022-07-22T10:00:03;4;4;
70255;PMS5003;57669;52.624;-1.688;2022-07-22T10:04:53;6;5;
70255;PMS5003;57669;52.624;-1.688;2022-07-22T10:07:18;6;6;
70255;PMS5003;57669;52.624;-1.688;2022-07-22T10:09:44;6;6;
70255;PMS5003;57669;52.624;-1.688;2022-07-22T10:12:09;5;5;
70255;PMS5003;57669;52.624;-1.688;2022-07-22T10:14:35;8;8;
70255;PMS5003;57669;52.624;-1.688;2022-07-22T10:17:01;6;5;
70255;PMS5003;57669;52.624;-1.688;2022-07-22T10:19:27;5;5;
70255;PMS5003;57669;52.624;-1.688;2022-07-22T10:21:52;5;5;
70255;PMS5003;57669;52.624;-1.688;2022-07-22T10:26:48;4;4;
70255;PMS5003;57669;52.624;-1.688;2022-07-22T10:31:35;5;5;
70255;PMS5003;57669;52.624;-1.688;2022-07-22T10:34:01;6;6;
70255;PMS5003;57669;52.624;-1.688;2022-07-22T10:36:30;5;5;
70255;PMS5003;57669;52.624;-1.688;2022-07-22T10:41:22;7;6;
70255;PMS5003;57669;52.624;-1.688;2022-07-22T10:43:47;8;7;
70255;PMS5003;57669;52.624;-1.688;2022-07-22T10:46:09;9;6;
70255;PMS5003;57669;52.624;-1.688;2022-07-22T10:53:39;7;6;
70255;PMS5003;57669;52.624;-1.688;2022-07-22T11:00:43;6;6;
70255;PMS5003;57669;52.624;-1.688;2022-07-22T11:03:08;4;4;
70255;PMS5003;57669;52.624;-1.688;2022-07-22T11:05:34;7;7;
70255;PMS5003;57669;52.624;-1.688;2022-07-22T11:07:59;7;7;
70255;PMS5003;57669;52.624;-1.688;2022-07-22T11:10:25;4;4;
70255;PMS5003;57669;52.624;-1.688;2022-07-22T11:12:50;6;6;
70255;PMS5003;57669;52.624;-1.688;2022-07-22T11:17:42;5;5;
70255;PMS5003;57669;52.624;-1.688;2022-07-22T11:20:08;5;5;
70255;PMS5003;57669;52.624;-1.688;2022-07-22T11:22:33;6;6;
70255;PMS5003;57669;52.624;-1.688;2022-07-22T11:24:59;6;5;
70255;PMS5003;57669;52.624;-1.688;2022-07-22T11:27:24;6;6;
70255;PMS5003;57669;52.624;-1.688;2022-07-22T11:29:51;5;5;
70255;PMS5003;57669;52.624;-1.688;2022-07-22T11:32:16;6;6;
70255;PMS5003;57669;52.624;-1.688;2022-07-22T11:34:42;6;6;
70255;PMS5003;57669;52.624;-1.688;2022-07-22T11:37:07;4;4;
70255;PMS5003;57669;52.624;-1.688;2022-07-22T11:39:33;6;5;
70255;PMS5003;57669;52.624;-1.688;2022-07-22T11:41:58;8;8;
70255;PMS5003;57669;52.624;-1.688;2022-07-22T11:44:25;7;7;
70255;PMS5003;57669;52.624;-1.688;2022-07-22T11:46:49;5;5;
70255;PMS5003;57669;52.624;-1.688;2022-07-22T11:49:16;6;5;
70255;PMS5003;57669;52.624;-1.688;2022-07-22T11:51:41;6;5;
70255;PMS5003;57669;52.624;-1.688;2022-07-22T11:54:06;6;6;
70255;PMS5003;57669;52.624;-1.688;2022-07-22T11:56:32;6;5;
70255;PMS5003;57669;52.624;-1.688;2022-07-22T11:58:58;5;5;
70255;PMS5003;57669;52.624;-1.688;2022-07-22T12:01:25;8;8;
70255;PMS5003;57669;52.624;-1.688;2022-07-22T12:03:50;8;8;
70255;PMS5003;57669;52.624;-1.688;2022-07-22T12:06:15;9;8;
70255;PMS5003;57669;52.624;-1.688;2022-07-22T12:08:41;10;10;
70255;PMS5003;57669;52.624;-1.688;2022-07-22T12:11:06;8;8;
70255;PMS5003;57669;52.624;-1.688;2022-07-22T12:13:31;14;12;
70255;PMS5003;57669;52.624;-1.688;2022-07-22T12:15:57;10;10;
70255;PMS5003;57669;52.624;-1.688;2022-07-22T12:18:23;13;13;
70255;PMS5003;57669;52.624;-1.688;2022-07-22T12:20:48;9;9;
70255;PMS5003;57669;52.624;-1.688;2022-07-22T12:23:13;10;10;
70255;PMS5003;57669;52.624;-1.688;2022-07-22T12:28:05;12;10;
70255;PMS5003;57669;52.624;-1.688;2022-07-22T12:30:30;8;8;
70255;PMS5003;57669;52.624;-1.688;2022-07-22T12:32:56;7;7;
70255;PMS5003;57669;52.624;-1.688;2022-07-22T12:35:21;9;9;
70255;PMS5003;57669;52.624;-1.688;2022-07-22T12:37:47;14;14;
70255;PMS5003;57669;52.624;-1.688;2022-07-22T12:40:17;5;5;
70255;PMS5003;57669;52.624;-1.688;2022-07-22T12:42:39;11;10;
70255;PMS5003;57669;52.624;-1.688;2022-07-22T12:45:04;6;6;
70255;PMS5003;57669;52.624;-1.688;2022-07-22T12:49:54;8;8;
70255;PMS5003;57669;52.624;-1.688;2022-07-22T12:52:20;7;7;
70255;PMS5003;57669;52.624;-1.688;2022-07-22T12:54:46;8;7;
70255;PMS5003;57669;52.624;-1.688;2022-07-22T12:57:11;4;4;
70255;PMS5003;57669;52.624;-1.688;2022-07-22T12:59:37;6;6;
70255;PMS5003;57669;52.624;-1.688;2022-07-22T13:02:02;7;7;
70255;PMS5003;57669;52.624;-1.688;2022-07-22T13:04:28;7;7;
70255;PMS5003;57669;52.624;-1.688;2022-07-22T13:06:53;10;8;
70255;PMS5003;57669;52.624;-1.688;2022-07-22T13:09:19;7;7;
70255;PMS5003;57669;52.624;-1.688;2022-07-22T13:11:45;8;7;
70255;PMS5003;57669;52.624;-1.688;2022-07-22T13:14:10;9;8;
70255;PMS5003;57669;52.624;-1.688;2022-07-22T13:16:36;7;7;
70255;PMS5003;57669;52.624;-1.688;2022-07-22T13:19:01;7;7;
70255;PMS5003;57669;52.624;-1.688;2022-07-22T13:21:27;8;8;
70255;PMS5003;57669;52.624;-1.688;2022-07-22T13:23:53;8;8;
70255;PMS5003;57669;52.624;-1.688;2022-07-22T13:26:18;8;8;
70255;PMS5003;57669;52.624;-1.688;2022-07-22T13:28:44;9;9;
70255;PMS5003;57669;52.624;-1.688;2022-07-22T13:31:09;8;8;
70255;PMS5003;57669;52.624;-1.688;2022-07-22T13:33:35;7;7;
70255;PMS5003;57669;52.624;-1.688;2022-07-22T13:36:00;10;10;
70255;PMS5003;57669;52.624;-1.688;2022-07-22T13:38:26;9;8;
70255;PMS5003;57669;52.624;-1.688;2022-07-22T13:40:51;9;8;
70255;PMS5003;57669;52.624;-1.688;2022-07-22T13:43:17;6;6;
70255;PMS5003;57669;52.624;-1.688;2022-07-22T13:45:42;11;10;
70255;PMS5003;57669;52.624;-1.688;2022-07-22T13:48:08;10;9;
70255;PMS5003;57669;52.624;-1.688;2022-07-22T13:50:34;9;9;
70255;PMS5003;57669;52.624;-1.688;2022-07-22T13:52:59;7;6;
70255;PMS5003;57669;52.624;-1.688;2022-07-22T13:55:25;6;6;
70255;PMS5003;57669;52.624;-1.688;2022-07-22T13:57:51;6;6;
70255;PMS5003;57669;52.624;-1.688;2022-07-22T14:00:16;7;7;
70255;PMS5003;57669;52.624;-1.688;2022-07-22T14:02:42;7;7;
70255;PMS5003;57669;52.624;-1.688;2022-07-22T14:05:08;8;8;
70255;PMS5003;57669;52.624;-1.688;2022-07-22T14:07:33;5;5;
70255;PMS5003;57669;52.624;-1.688;2022-07-22T14:09:59;4;4;
70255;PMS5003;57669;52.624;-1.688;2022-07-22T14:12:24;7;6;
70255;PMS5003;57669;52.624;-1.688;2022-07-22T14:14:50;5;5;
70255;PMS5003;57669;52.624;-1.688;2022-07-22T14:17:15;8;7;
70255;PMS5003;57669;52.624;-1.688;2022-07-22T14:19:41;6;5;
70255;PMS5003;57669;52.624;-1.688;2022-07-22T14:22:06;8;8;
70255;PMS5003;57669;52.624;-1.688;2022-07-22T14:24:32;8;7;
70255;PMS5003;57669;52.624;-1.688;2022-07-22T14:26:58;5;5;
70255;PMS5003;57669;52.624;-1.688;2022-07-22T14:29:23;6;6;
70255;PMS5003;57669;52.624;-1.688;2022-07-22T14:31:49;6;6;
70255;PMS5003;57669;52.624;-1.688;2022-07-22T14:34:14;6;6;
70255;PMS5003;57669;52.624;-1.688;2022-07-22T14:36:40;6;6;
70255;PMS5003;57669;52.624;-1.688;2022-07-22T14:39:05;7;6;
70255;PMS5003;57669;52.624;-1.688;2022-07-22T14:41:31;7;6;
70255;PMS5003;57669;52.624;-1.688;2022-07-22T14:43:56;9;7;
70255;PMS5003;57669;52.624;-1.688;2022-07-22T14:46:22;7;7;
70255;PMS5003;57669;52.624;-1.688;2022-07-22T14:48:47;7;6;
70255;PMS5003;57669;52.624;-1.688;2022-07-22T14:51:13;6;5;
70255;PMS5003;57669;52.624;-1.688;2022-07-22T14:53:38;6;6;
70255;PMS5003;57669;52.624;-1.688;2022-07-22T14:56:04;7;7;
70255;PMS5003;57669;52.624;-1.688;2022-07-22T14:58:30;7;6;
70255;PMS5003;57669;52.624;-1.688;2022-07-22T15:00:55;7;6;
70255;PMS5003;57669;52.624;-1.688;2022-07-22T15:03:20;6;6;
70255;PMS5003;57669;52.624;-1.688;2022-07-22T15:05:46;6;5;
70255;PMS5003;57669;52.624;-1.688;2022-07-22T15:08:12;4;4;
70255;PMS5003;57669;52.624;-1.688;2022-07-22T15:10:37;6;6;
70255;PMS5003;57669;52.624;-1.688;2022-07-22T15:13:03;5;4;
70255;PMS5003;57669;52.624;-1.688;2022-07-22T15:15:28;5;5;
70255;PMS5003;57669;52.624;-1.688;2022-07-22T15:17:54;6;6;
70255;PMS5003;57669;52.624;-1.688;2022-07-22T15:20:20;7;7;
70255;PMS5003;57669;52.624;-1.688;2022-07-22T15:22:45;3;3;
70255;PMS5003;57669;52.624;-1.688;2022-07-22T15:25:11;6;6;
70255;PMS5003;57669;52.624;-1.688;2022-07-22T15:27:36;5;5;
70255;PMS5003;57669;52.624;-1.688;2022-07-22T15:30:02;5;5;
70255;PMS5003;57669;52.624;-1.688;2022-07-22T15:32:27;7;7;
70255;PMS5003;57669;52.624;-1.688;2022-07-22T15:34:53;5;5;
70255;PMS5003;57669;52.624;-1.688;2022-07-22T15:37:18;4;4;
70255;PMS5003;57669;52.624;-1.688;2022-07-22T15:39:44;3;3;
70255;PMS5003;57669;52.624;-1.688;2022-07-22T15:42:10;5;4;
70255;PMS5003;57669;52.624;-1.688;2022-07-22T15:44:35;6;5;
70255;PMS5003;57669;52.624;-1.688;2022-07-22T15:47:01;4;4;
70255;PMS5003;57669;52.624;-1.688;2022-07-22T15:49:26;4;4;
70255;PMS5003;57669;52.624;-1.688;2022-07-22T15:51:52;5;4;
70255;PMS5003;57669;52.624;-1.688;2022-07-22T15:54:17;5;5;
70255;PMS5003;57669;52.624;-1.688;2022-07-22T15:56:44;7;6;
70255;PMS5003;57669;52.624;-1.688;2022-07-22T15:59:08;6;5;
70255;PMS5003;57669;52.624;-1.688;2022-07-22T16:01:34;5;5;
70255;PMS5003;57669;52.624;-1.688;2022-07-22T16:03:59;6;6;
70255;PMS5003;57669;52.624;-1.688;2022-07-22T16:06:25;4;4;
70255;PMS5003;57669;52.624;-1.688;2022-07-22T16:08:50;5;5;
70255;PMS5003;57669;52.624;-1.688;2022-07-22T16:11:16;5;5;
70255;PMS5003;57669;52.624;-1.688;2022-07-22T16:13:41;4;4;
70255;PMS5003;57669;52.624;-1.688;2022-07-22T16:16:07;6;6;
70255;PMS5003;57669;52.624;-1.688;2022-07-22T16:18:33;5;5;
70255;PMS5003;57669;52.624;-1.688;2022-07-22T16:20:58;4;4;
70255;PMS5003;57669;52.624;-1.688;2022-07-22T16:23:24;4;4;
70255;PMS5003;57669;52.624;-1.688;2022-07-22T16:25:49;6;6;
70255;PMS5003;57669;52.624;-1.688;2022-07-22T16:28:15;6;6;
70255;PMS5003;57669;52.624;-1.688;2022-07-22T16:30:40;3;3;
70255;PMS5003;57669;52.624;-1.688;2022-07-22T16:33:06;6;6;
70255;PMS5003;57669;52.624;-1.688;2022-07-22T16:35:32;6;5;
70255;PMS5003;57669;52.624;-1.688;2022-07-22T16:37:57;5;5;
70255;PMS5003;57669;52.624;-1.688;2022-07-22T16:40:29;5;4;
70255;PMS5003;57669;52.624;-1.688;2022-07-22T16:42:48;6;6;
70255;PMS5003;57669;52.624;-1.688;2022-07-22T16:45:14;5;5;
70255;PMS5003;57669;52.624;-1.688;2022-07-22T16:47:39;4;4;
70255;PMS5003;57669;52.624;-1.688;2022-07-22T16:50:06;6;6;
70255;PMS5003;57669;52.624;-1.688;2022-07-22T16:52:31;6;5;
70255;PMS5003;57669;52.624;-1.688;2022-07-22T16:54:56;4;4;
70255;PMS5003;57669;52.624;-1.688;2022-07-22T16:57:22;6;6;
70255;PMS5003;57669;52.624;-1.688;2022-07-22T16:59:48;7;7;